createdAt,value
2017-09-11T00:00:54.846Z,10.20
2017-09-11T00:03:22.361Z,10.20
2017-09-11T00:05:49.907Z,10.30
2017-09-11T00:08:17.422Z,10.30
2017-09-11T00:10:44.959Z,10.30
2017-09-11T00:13:12.473Z,10.40
2017-09-11T00:15:40.010Z,10.40
2017-09-11T00:18:07.527Z,10.40
2017-09-11T00:20:35.062Z,10.50
2017-09-11T00:23:02.596Z,10.40
2017-09-11T00:25:30.134Z,10.30
2017-09-11T00:27:57.652Z,10.20
2017-09-11T00:30:25.195Z,10.20
2017-09-11T00:32:52.714Z,10.20
2017-09-11T00:35:20.250Z,10.20
2017-09-11T00:37:47.778Z,10.20
2017-09-11T00:40:15.309Z,10.10
2017-09-11T00:42:43.603Z,10.00
2017-09-11T00:45:11.135Z,10.00
2017-09-11T00:47:38.651Z,10.00
2017-09-11T00:50:06.195Z,10.00
2017-09-11T00:52:33.723Z,10.10
2017-09-11T00:55:01.261Z,10.10
2017-09-11T00:57:29.543Z,10.10
2017-09-11T00:59:57.082Z,10.10
2017-09-11T01:02:24.610Z,10.00
2017-09-11T01:04:52.138Z,9.90
2017-09-11T01:07:19.666Z,9.80
2017-09-11T01:09:47.946Z,9.80
2017-09-11T01:12:16.251Z,9.70
2017-09-11T01:14:43.766Z,9.60
2017-09-11T01:17:11.300Z,9.60
2017-09-11T01:19:38.816Z,9.60
2017-09-11T01:22:06.346Z,9.50
2017-09-11T01:24:33.859Z,9.50
2017-09-11T01:27:01.400Z,9.50
2017-09-11T01:29:28.926Z,9.50
2017-09-11T01:31:56.470Z,9.50
2017-09-11T01:34:23.987Z,9.50
2017-09-11T01:36:51.526Z,9.50
2017-09-11T01:39:19.042Z,9.30
2017-09-11T01:41:46.574Z,9.30
2017-09-11T01:44:14.089Z,9.30
2017-09-11T01:46:41.627Z,9.20
2017-09-11T01:49:09.148Z,9.10
2017-09-11T01:51:36.690Z,9.10
2017-09-11T01:54:04.201Z,9.10
2017-09-11T01:56:31.739Z,9.20
2017-09-11T01:59:00.022Z,9.30
2017-09-11T02:01:28.322Z,9.30
2017-09-11T02:03:55.870Z,9.30
2017-09-11T02:06:24.167Z,9.30
2017-09-11T02:08:51.679Z,9.30
2017-09-11T02:11:19.215Z,9.20
2017-09-11T02:13:46.735Z,9.20
2017-09-11T02:16:14.284Z,9.20
2017-09-11T02:18:42.566Z,9.20
2017-09-11T02:21:10.103Z,9.20
2017-09-11T02:23:37.618Z,9.20
2017-09-11T02:26:05.154Z,9.30
2017-09-11T02:28:33.442Z,9.20
2017-09-11T02:31:01.734Z,9.30
2017-09-11T02:33:29.252Z,9.30
2017-09-11T02:35:57.560Z,9.30
2017-09-11T02:38:25.074Z,9.30
2017-09-11T02:40:52.614Z,9.30
2017-09-11T02:43:20.130Z,9.20
2017-09-11T02:45:47.665Z,9.10
2017-09-11T02:48:15.175Z,8.90
2017-09-11T02:50:42.711Z,8.90
2017-09-11T02:53:10.995Z,8.80
2017-09-11T02:55:39.301Z,8.90
2017-09-11T02:58:06.814Z,8.90
2017-09-11T03:00:35.119Z,8.90
2017-09-11T03:03:02.647Z,8.90
2017-09-11T03:05:30.182Z,8.90
2017-09-11T03:07:57.703Z,9.00
2017-09-11T03:10:25.234Z,8.90
2017-09-11T03:12:52.770Z,8.90
2017-09-11T03:15:20.285Z,8.90
2017-09-11T03:17:47.823Z,9.00
2017-09-11T03:20:16.111Z,8.80
2017-09-11T03:22:43.651Z,8.80
2017-09-11T03:25:11.938Z,8.70
2017-09-11T03:27:40.299Z,8.70
2017-09-11T03:30:07.816Z,8.60
2017-09-11T03:32:35.354Z,8.50
2017-09-11T03:35:02.884Z,8.40
2017-09-11T03:37:31.189Z,8.40
2017-09-11T03:39:58.715Z,8.40
2017-09-11T03:42:26.254Z,8.40
2017-09-11T03:44:53.778Z,8.50
2017-09-11T03:47:21.326Z,8.60
2017-09-11T03:49:48.838Z,8.60
2017-09-11T03:52:16.374Z,8.50
2017-09-11T03:54:43.896Z,8.40
2017-09-11T03:57:12.194Z,8.40
2017-09-11T03:59:39.718Z,8.30
2017-09-11T04:02:08.024Z,8.40
2017-09-11T04:04:35.542Z,8.40
2017-09-11T04:07:03.079Z,8.40
2017-09-11T04:09:30.607Z,8.40
2017-09-11T04:11:58.146Z,8.40
2017-09-11T04:14:25.670Z,8.30
2017-09-11T04:16:53.275Z,8.40
2017-09-11T04:19:20.802Z,8.30
2017-09-11T04:21:48.352Z,8.30
2017-09-11T04:24:15.869Z,8.20
2017-09-11T04:26:43.406Z,8.20
2017-09-11T04:29:11.694Z,8.30
2017-09-11T04:31:39.242Z,8.30
2017-09-11T04:34:06.768Z,8.40
2017-09-11T04:36:34.311Z,8.50
2017-09-11T04:39:01.838Z,8.60
2017-09-11T04:41:29.393Z,8.60
2017-09-11T04:43:56.911Z,8.60
2017-09-11T04:46:24.463Z,8.70
2017-09-11T04:48:51.982Z,8.80
2017-09-11T04:51:20.285Z,9.00
2017-09-11T04:53:47.811Z,9.00
2017-09-11T04:56:16.115Z,8.80
2017-09-11T04:58:43.635Z,8.80
2017-09-11T05:01:11.174Z,8.70
2017-09-11T05:03:38.694Z,8.70
2017-09-11T05:06:06.239Z,8.60
2017-09-11T05:08:34.529Z,8.70
2017-09-11T05:11:02.067Z,8.70
2017-09-11T05:13:30.358Z,8.90
2017-09-11T05:15:57.897Z,8.90
2017-09-11T05:18:25.415Z,9.10
2017-09-11T05:20:52.931Z,9.20
2017-09-11T05:23:21.235Z,9.50
2017-09-11T05:25:48.759Z,9.40
2017-09-11T05:28:17.079Z,10.60
2017-09-11T05:30:44.602Z,10.60
2017-09-11T05:33:12.912Z,13.60
2017-09-11T05:35:40.435Z,13.60
2017-09-11T05:38:08.743Z,14.40
2017-09-11T05:40:36.271Z,14.50
2017-09-11T05:43:03.809Z,14.70
2017-09-11T05:45:31.331Z,15.30
2017-09-11T05:47:58.874Z,15.30
2017-09-11T05:50:26.394Z,14.70
2017-09-11T05:52:53.939Z,14.20
2017-09-11T05:55:22.228Z,13.20
2017-09-11T05:57:49.771Z,13.20
2017-09-11T06:00:18.063Z,12.50
2017-09-11T06:02:45.600Z,12.50
2017-09-11T06:05:13.888Z,12.10
2017-09-11T06:07:42.192Z,12.00
2017-09-11T06:10:09.723Z,12.00
2017-09-11T06:12:38.030Z,11.80
2017-09-11T06:15:05.551Z,11.80
2017-09-11T06:17:33.850Z,11.80
2017-09-11T06:20:02.132Z,11.80
2017-09-11T06:22:29.666Z,11.80
2017-09-11T06:24:57.951Z,11.90
2017-09-11T06:27:26.256Z,11.90
2017-09-11T06:29:53.775Z,11.90
2017-09-11T06:32:21.319Z,12.10
2017-09-11T06:34:48.837Z,12.30
2017-09-11T06:37:16.381Z,12.40
2017-09-11T06:39:43.908Z,12.60
2017-09-11T06:42:11.451Z,12.60
2017-09-11T06:44:38.966Z,12.80
2017-09-11T06:47:06.507Z,12.80
2017-09-11T06:49:34.799Z,12.80
2017-09-11T06:52:02.334Z,12.70
2017-09-11T06:54:30.623Z,12.70
2017-09-11T06:56:58.926Z,12.70
2017-09-11T06:59:26.450Z,12.70
2017-09-11T07:01:54.762Z,12.70
2017-09-11T07:04:22.283Z,12.70
2017-09-11T07:06:49.827Z,12.70
2017-09-11T07:09:17.352Z,12.60
2017-09-11T07:11:44.899Z,12.60
2017-09-11T07:14:12.423Z,12.60
2017-09-11T07:16:39.953Z,12.60
2017-09-11T07:19:07.477Z,12.60
2017-09-11T07:21:35.020Z,12.60
2017-09-11T07:24:03.307Z,12.70
2017-09-11T07:26:30.847Z,12.70
2017-09-11T07:28:59.140Z,12.80
2017-09-11T07:31:27.450Z,12.80
2017-09-11T07:33:54.967Z,12.80
2017-09-11T07:36:23.254Z,12.90
2017-09-11T07:38:51.558Z,12.80
2017-09-11T07:41:19.082Z,12.80
2017-09-11T07:43:46.626Z,12.80
2017-09-11T07:46:14.155Z,12.90
2017-09-11T07:48:41.699Z,12.90
2017-09-11T07:51:09.986Z,13.10
2017-09-11T07:53:38.287Z,13.20
2017-09-11T07:56:05.819Z,13.20
2017-09-11T07:58:34.131Z,13.40
2017-09-11T08:01:01.656Z,13.40
2017-09-11T08:03:29.970Z,13.40
2017-09-11T08:05:57.490Z,13.40
2017-09-11T08:08:26.542Z,13.50
2017-09-11T08:10:54.076Z,13.50
2017-09-11T08:13:21.623Z,13.50
2017-09-11T08:15:49.148Z,13.50
2017-09-11T08:18:16.682Z,13.60
2017-09-11T08:20:44.201Z,13.60
2017-09-11T08:23:11.739Z,13.60
2017-09-11T08:25:40.047Z,13.50
2017-09-11T08:28:07.580Z,13.50
2017-09-11T08:30:35.123Z,13.40
2017-09-11T08:33:03.415Z,13.20
2017-09-11T08:35:31.724Z,13.10
2017-09-11T08:37:59.252Z,13.10
2017-09-11T08:40:27.563Z,13.10
2017-09-11T08:42:55.085Z,13.10
2017-09-11T08:45:23.425Z,13.30
2017-09-11T08:47:50.936Z,13.20
2017-09-11T08:50:18.488Z,13.20
2017-09-11T08:52:46.019Z,13.20
2017-09-11T08:55:14.315Z,13.40
2017-09-11T08:57:41.859Z,13.40
2017-09-11T09:00:10.144Z,13.50
2017-09-11T09:02:37.683Z,13.40
2017-09-11T09:05:05.204Z,13.40
2017-09-11T09:07:33.515Z,13.40
2017-09-11T09:10:01.040Z,13.40
2017-09-11T09:12:28.578Z,13.50
2017-09-11T09:14:56.107Z,13.60
2017-09-11T09:17:23.648Z,13.60
2017-09-11T09:19:51.171Z,13.70
2017-09-11T09:22:18.712Z,13.80
2017-09-11T09:24:46.230Z,13.90
2017-09-11T09:27:13.776Z,14.00
2017-09-11T09:29:42.068Z,14.20
2017-09-11T09:32:09.615Z,14.20
2017-09-11T09:34:37.898Z,14.40
2017-09-11T09:37:05.415Z,14.40
2017-09-11T09:39:32.951Z,14.40
2017-09-11T09:42:00.470Z,14.40
2017-09-11T09:44:28.018Z,14.30
2017-09-11T09:46:55.548Z,14.40
2017-09-11T09:49:23.087Z,14.40
2017-09-11T09:51:50.606Z,14.40
2017-09-11T09:54:18.151Z,14.40
2017-09-11T09:56:45.674Z,14.30
2017-09-11T09:59:13.208Z,14.40
2017-09-11T10:01:41.495Z,14.50
2017-09-11T10:04:09.041Z,14.50
2017-09-11T10:06:36.562Z,14.50
2017-09-11T10:09:04.864Z,14.70
2017-09-11T10:11:32.379Z,14.60
2017-09-11T10:14:00.699Z,14.90
2017-09-11T10:16:28.224Z,14.90
2017-09-11T10:18:56.505Z,15.00
2017-09-11T10:21:24.047Z,15.00
2017-09-11T10:23:52.334Z,14.70
2017-09-11T10:26:20.642Z,14.50
2017-09-11T10:28:48.171Z,14.50
2017-09-11T10:31:16.479Z,14.50
2017-09-11T10:33:43.994Z,14.40
2017-09-11T10:36:12.306Z,14.50
2017-09-11T10:38:39.831Z,14.50
2017-09-11T10:41:08.139Z,14.40
2017-09-11T10:43:35.663Z,14.40
2017-09-11T10:46:03.202Z,14.30
2017-09-11T10:48:30.719Z,14.30
2017-09-11T10:50:58.273Z,14.20
2017-09-11T10:53:25.803Z,14.20
2017-09-11T10:55:54.092Z,14.50
2017-09-11T10:58:22.394Z,14.60
2017-09-11T11:00:49.911Z,14.60
2017-09-11T11:03:17.455Z,14.70
2017-09-11T11:05:44.978Z,15.10
2017-09-11T11:08:12.522Z,15.50
2017-09-11T11:10:40.046Z,15.70
2017-09-11T11:13:07.582Z,15.80
2017-09-11T11:15:35.111Z,16.00
2017-09-11T11:18:02.658Z,16.00
2017-09-11T11:20:30.175Z,16.00
2017-09-11T11:22:57.710Z,16.00
2017-09-11T11:25:25.227Z,15.90
2017-09-11T11:27:52.776Z,15.80
2017-09-11T11:30:20.291Z,15.80
2017-09-11T11:32:48.599Z,15.80
2017-09-11T11:35:16.122Z,15.80
2017-09-11T11:37:44.430Z,15.80
2017-09-11T11:40:11.950Z,15.80
2017-09-11T11:42:40.239Z,16.10
2017-09-11T11:45:08.552Z,16.20
2017-09-11T11:47:36.079Z,16.20
2017-09-11T11:50:04.384Z,17.00
2017-09-11T11:52:31.902Z,16.90
2017-09-11T11:55:34.034Z,18.00
2017-09-11T11:58:01.574Z,18.90
2017-09-11T12:00:29.099Z,19.00
2017-09-11T12:02:57.414Z,18.80
2017-09-11T12:05:24.935Z,18.80
2017-09-11T12:07:53.215Z,18.20
2017-09-11T12:10:21.523Z,18.30
2017-09-11T12:12:49.050Z,18.30
2017-09-11T12:15:17.356Z,19.60
2017-09-11T12:17:44.871Z,19.60
2017-09-11T12:20:12.417Z,19.60
2017-09-11T12:22:39.939Z,19.60
2017-09-11T12:25:07.475Z,19.90
2017-09-11T12:27:35.758Z,19.80
2017-09-11T12:30:03.299Z,19.80
2017-09-11T12:32:31.588Z,19.70
2017-09-11T12:34:59.129Z,19.60
2017-09-11T12:37:27.453Z,20.20
2017-09-11T12:39:54.986Z,20.10
2017-09-11T12:42:23.277Z,20.40
2017-09-11T12:44:50.808Z,20.30
2017-09-11T12:47:19.123Z,19.90
2017-09-11T12:49:46.639Z,19.90
2017-09-11T12:52:14.186Z,20.30
2017-09-11T12:54:41.750Z,20.50
2017-09-11T12:57:09.302Z,20.90
2017-09-11T12:59:36.825Z,20.50
2017-09-11T13:02:04.362Z,20.20
2017-09-11T13:04:31.879Z,19.80
2017-09-11T13:06:59.415Z,19.30
2017-09-11T13:09:26.931Z,18.80
2017-09-11T13:11:55.239Z,18.40
2017-09-11T13:14:22.763Z,18.40
2017-09-11T13:16:51.095Z,18.40
2017-09-11T13:19:18.612Z,18.40
2017-09-11T13:21:46.142Z,18.90
2017-09-11T13:24:13.682Z,19.40
2017-09-11T13:26:41.197Z,19.60
2017-09-11T13:29:08.739Z,19.70
2017-09-11T13:31:37.037Z,19.60
2017-09-11T13:34:04.574Z,19.60
2017-09-11T13:36:32.858Z,19.10
2017-09-11T13:39:01.163Z,19.10
2017-09-11T13:41:28.688Z,19.10
2017-09-11T13:43:56.994Z,19.20
2017-09-11T13:46:24.519Z,19.20
2017-09-11T13:48:52.067Z,19.10
2017-09-11T13:51:19.582Z,18.90
2017-09-11T13:53:47.135Z,18.70
2017-09-11T13:56:14.664Z,18.30
2017-09-11T13:58:42.947Z,18.20
2017-09-11T14:03:44.215Z,18.10
2017-09-11T14:06:12.518Z,18.00
2017-09-11T14:08:40.043Z,18.00
2017-09-11T14:11:08.355Z,17.90
2017-09-11T14:13:35.887Z,17.90
2017-09-11T14:16:04.190Z,17.90
2017-09-11T14:18:31.706Z,17.80
2017-09-11T14:20:59.252Z,17.80
2017-09-11T14:23:26.771Z,17.80
2017-09-11T14:25:54.308Z,17.80
2017-09-11T14:28:22.589Z,18.40
2017-09-11T14:30:50.131Z,18.40
2017-09-11T14:33:18.425Z,18.80
2017-09-11T14:35:45.986Z,18.70
2017-09-11T14:38:13.504Z,18.70
2017-09-11T14:40:41.026Z,18.90
2017-09-11T14:43:08.576Z,18.90
2017-09-11T14:45:36.098Z,18.90
2017-09-11T14:48:03.643Z,19.00
2017-09-11T14:50:31.159Z,19.00
2017-09-11T14:52:58.695Z,19.10
2017-09-11T14:55:26.992Z,18.60
2017-09-11T14:57:54.532Z,18.60
2017-09-11T15:00:22.825Z,17.80
2017-09-11T15:02:50.372Z,17.80
2017-09-11T15:05:18.656Z,18.00
2017-09-11T15:07:46.211Z,18.00
2017-09-11T15:10:14.493Z,17.70
2017-09-11T15:12:42.047Z,17.60
2017-09-11T15:15:10.357Z,17.50
2017-09-11T15:17:37.883Z,17.40
2017-09-11T15:20:06.187Z,17.50
2017-09-11T15:22:33.708Z,17.50
2017-09-11T15:25:02.019Z,18.00
2017-09-11T15:27:29.538Z,17.90
2017-09-11T15:29:57.075Z,18.10
2017-09-11T15:32:24.603Z,18.20
2017-09-11T15:34:52.143Z,18.20
2017-09-11T15:37:19.666Z,18.10
2017-09-11T15:39:47.211Z,17.90
2017-09-11T15:42:15.494Z,17.50
2017-09-11T15:44:43.803Z,17.30
2017-09-11T15:47:11.323Z,17.30
2017-09-11T15:49:39.638Z,17.10
2017-09-11T15:52:07.167Z,17.10
2017-09-11T15:54:34.692Z,17.40
2017-09-11T15:57:02.235Z,17.70
2017-09-11T15:59:29.759Z,18.00
2017-09-11T16:01:58.067Z,18.10
2017-09-11T16:04:25.587Z,18.10
2017-09-11T16:06:53.132Z,18.00
2017-09-11T16:09:20.658Z,17.90
2017-09-11T16:11:48.205Z,17.80
2017-09-11T16:14:15.731Z,17.80
2017-09-11T16:16:43.272Z,17.50
2017-09-11T16:19:10.791Z,17.40
2017-09-11T16:21:38.331Z,17.20
2017-09-11T16:24:06.616Z,16.80
2017-09-11T16:26:34.158Z,16.80
2017-09-11T16:29:02.439Z,16.50
2017-09-11T16:31:29.980Z,16.50
2017-09-11T16:33:57.504Z,16.40
2017-09-11T16:36:25.055Z,16.30
2017-09-11T16:38:52.582Z,16.20
2017-09-11T16:41:20.103Z,16.10
2017-09-11T16:43:48.419Z,15.80
2017-09-11T16:46:15.938Z,15.80
2017-09-11T16:48:44.249Z,15.60
2017-09-11T16:51:11.766Z,15.60
2017-09-11T16:53:40.075Z,15.50
2017-09-11T16:56:07.600Z,15.40
2017-09-11T16:58:35.907Z,15.30
2017-09-11T17:01:03.436Z,15.30
2017-09-11T17:03:30.985Z,15.30
2017-09-11T17:05:58.511Z,15.20
2017-09-11T17:08:26.062Z,15.10
2017-09-11T17:10:53.651Z,15.00
2017-09-11T17:13:21.186Z,15.00
2017-09-11T17:15:48.727Z,14.90
2017-09-11T17:18:16.266Z,14.80
2017-09-11T17:20:44.572Z,14.60
2017-09-11T17:23:12.091Z,14.60
2017-09-11T17:25:39.639Z,14.60
2017-09-11T17:28:07.155Z,14.50
2017-09-11T17:30:34.690Z,14.50
2017-09-11T17:33:02.982Z,14.40
2017-09-11T17:35:30.527Z,14.40
2017-09-11T17:37:58.815Z,14.20
2017-09-11T17:40:26.357Z,14.20
2017-09-11T17:42:54.654Z,14.10
2017-09-11T17:45:22.203Z,14.00
2017-09-11T17:47:50.496Z,13.90
2017-09-11T17:50:18.019Z,13.80
2017-09-11T17:52:45.564Z,13.80
2017-09-11T17:55:13.087Z,13.70
2017-09-11T17:57:40.628Z,13.70
2017-09-11T18:00:08.150Z,13.60
2017-09-11T18:02:35.691Z,13.60
2017-09-11T18:05:03.211Z,13.50
2017-09-11T18:07:30.767Z,13.50
2017-09-11T18:09:58.286Z,13.50
2017-09-11T18:12:26.593Z,13.40
2017-09-11T18:14:54.115Z,13.40
2017-09-11T18:17:22.427Z,13.20
2017-09-11T18:19:49.953Z,13.20
2017-09-11T18:22:18.247Z,13.10
2017-09-11T18:24:45.789Z,13.20
2017-09-11T18:27:13.326Z,13.20
2017-09-11T18:29:40.868Z,13.20
2017-09-11T18:32:08.383Z,13.20
2017-09-11T18:34:35.928Z,13.10
2017-09-11T18:37:03.447Z,13.10
2017-09-11T18:39:31.751Z,13.00
2017-09-11T18:41:59.274Z,13.00
2017-09-11T18:44:26.823Z,13.00
2017-09-11T18:46:54.353Z,13.00
2017-09-11T18:49:21.900Z,13.00
2017-09-11T18:51:49.420Z,13.00
2017-09-11T18:54:17.711Z,12.90
2017-09-11T18:56:46.021Z,13.00
2017-09-11T18:59:13.544Z,13.00
2017-09-11T19:01:41.847Z,13.10
2017-09-11T19:04:09.367Z,13.10
2017-09-11T19:06:36.915Z,13.10
2017-09-11T19:09:04.439Z,13.10
2017-09-11T19:11:32.023Z,13.10
2017-09-11T19:13:59.539Z,13.10
2017-09-11T19:16:27.082Z,13.10
2017-09-11T19:18:55.367Z,13.00
2017-09-11T19:21:22.915Z,13.00
2017-09-11T19:23:51.203Z,13.00
2017-09-11T19:26:19.511Z,13.00
2017-09-11T19:28:47.036Z,13.00
2017-09-11T19:31:15.360Z,12.90
2017-09-11T19:33:43.647Z,12.90
2017-09-11T19:36:11.171Z,12.90
2017-09-11T19:38:38.710Z,12.90
2017-09-11T19:41:06.994Z,12.70
2017-09-11T19:43:34.535Z,12.70
2017-09-11T19:46:02.828Z,12.60
2017-09-11T19:48:30.368Z,12.60
2017-09-11T19:50:57.897Z,12.60
2017-09-11T19:53:25.447Z,12.50
2017-09-11T19:55:53.738Z,12.40
2017-09-11T19:58:21.280Z,12.40
2017-09-11T20:00:49.567Z,12.30
2017-09-11T20:03:17.111Z,12.20
2017-09-11T20:05:45.400Z,12.20
2017-09-11T20:08:12.939Z,12.20
2017-09-11T20:10:41.232Z,12.20
2017-09-11T20:13:09.555Z,12.10
2017-09-11T20:15:37.087Z,12.10
2017-09-11T20:18:04.603Z,12.10
2017-09-11T20:20:32.143Z,12.00
2017-09-11T20:22:59.701Z,12.00
2017-09-11T20:25:27.236Z,11.90
2017-09-11T20:27:54.759Z,11.90
2017-09-11T20:30:23.062Z,11.90
2017-09-11T20:32:50.584Z,11.90
2017-09-11T20:35:18.125Z,11.80
2017-09-11T20:37:45.649Z,11.80
2017-09-11T20:40:13.190Z,11.80
2017-09-11T20:42:40.716Z,11.70
2017-09-11T20:45:08.262Z,11.70
2017-09-11T20:47:35.784Z,11.70
2017-09-11T20:50:04.107Z,11.80
2017-09-11T20:52:31.633Z,11.70
2017-09-11T20:54:59.919Z,11.70
2017-09-11T20:57:27.467Z,11.70
2017-09-11T20:59:55.765Z,11.60
2017-09-11T21:02:23.313Z,11.60
2017-09-11T21:04:50.837Z,11.60
2017-09-11T21:07:18.382Z,11.60
2017-09-11T21:09:45.898Z,11.50
2017-09-11T21:12:13.444Z,11.50
2017-09-11T21:14:40.968Z,11.50
2017-09-11T21:17:08.507Z,11.50
2017-09-11T21:19:36.031Z,11.50
2017-09-11T21:22:03.576Z,11.40
2017-09-11T21:24:31.090Z,11.40
2017-09-11T21:26:58.625Z,11.40
2017-09-11T21:29:26.152Z,11.40
2017-09-11T21:31:53.686Z,11.30
2017-09-11T21:34:21.974Z,11.20
2017-09-11T21:36:49.520Z,11.20
2017-09-11T21:39:17.802Z,11.10
2017-09-11T21:41:45.342Z,11.10
2017-09-11T21:44:12.883Z,11.00
2017-09-11T21:46:40.400Z,11.00
2017-09-11T21:49:07.946Z,11.00
2017-09-11T21:51:36.225Z,10.90
2017-09-11T21:54:04.526Z,10.90
2017-09-11T21:56:32.043Z,10.90
2017-09-11T21:58:59.588Z,10.80
2017-09-11T22:01:27.111Z,10.70
2017-09-11T22:03:54.654Z,10.60
2017-09-11T22:06:22.182Z,10.50
2017-09-11T22:08:49.724Z,10.50
2017-09-11T22:11:17.247Z,10.40
2017-09-11T22:13:44.779Z,10.40
2017-09-11T22:16:13.059Z,10.40
2017-09-11T22:18:41.358Z,10.50
2017-09-11T22:21:08.871Z,10.40
2017-09-11T22:23:36.407Z,10.50
2017-09-11T22:26:03.932Z,10.50
2017-09-11T22:28:31.477Z,10.50
2017-09-11T22:30:59.763Z,10.40
2017-09-11T22:33:27.298Z,10.40
2017-09-11T22:35:55.579Z,10.20
2017-09-11T22:38:23.885Z,10.10
2017-09-11T22:40:51.410Z,10.10
2017-09-11T22:43:18.955Z,10.10
2017-09-11T22:45:46.476Z,10.10
2017-09-11T22:48:14.014Z,10.20
2017-09-11T22:50:41.535Z,10.20
2017-09-11T22:53:11.691Z,10.30
2017-09-11T22:55:39.978Z,10.40
2017-09-11T22:58:07.519Z,10.40
2017-09-11T23:00:35.812Z,10.50
2017-09-11T23:03:03.352Z,10.50
2017-09-11T23:05:31.632Z,10.50
2017-09-11T23:07:59.938Z,10.50
2017-09-11T23:10:27.457Z,10.50
2017-09-11T23:12:55.767Z,10.50
2017-09-11T23:15:23.283Z,10.50
2017-09-11T23:17:50.828Z,10.50
2017-09-11T23:20:18.342Z,10.60
2017-09-11T23:22:45.885Z,10.70
2017-09-11T23:25:14.170Z,10.90
2017-09-11T23:27:41.714Z,10.90
2017-09-11T23:30:09.999Z,11.10
2017-09-11T23:32:38.300Z,11.20
2017-09-11T23:35:05.824Z,11.20
2017-09-11T23:37:34.127Z,11.30
2017-09-11T23:40:01.658Z,11.30
2017-09-11T23:42:29.967Z,11.40
2017-09-11T23:44:57.498Z,11.40
2017-09-11T23:47:25.808Z,11.50
2017-09-11T23:49:53.335Z,11.50
2017-09-11T23:52:21.643Z,11.50
2017-09-11T23:54:49.168Z,11.50
2017-09-11T23:57:17.470Z,11.50
2017-09-11T23:59:44.995Z,11.50
